createdAt,value
2023-02-03T00:00:21.980Z,4.30
2023-02-03T00:02:49.836Z,4.30
2023-02-03T00:05:17.864Z,4.30
2023-02-03T00:07:45.778Z,4.30
2023-02-03T00:10:14.118Z,4.30
2023-02-03T00:12:43.314Z,4.30
2023-02-03T00:15:11.712Z,4.30
2023-02-03T00:17:39.644Z,4.30
2023-02-03T00:20:08.249Z,4.30
2023-02-03T00:22:36.134Z,4.30
2023-02-03T00:25:04.237Z,4.40
2023-02-03T00:27:33.410Z,4.40
2023-02-03T00:30:02.824Z,4.40
2023-02-03T00:32:30.795Z,4.40
2023-02-03T00:34:58.749Z,4.40
2023-02-03T00:37:26.598Z,4.40
2023-02-03T00:39:54.754Z,4.40
2023-02-03T00:42:22.703Z,4.40
2023-02-03T00:44:50.555Z,4.40
2023-02-03T00:47:19.907Z,4.40
2023-02-03T00:49:47.775Z,4.50
2023-02-03T00:52:15.673Z,4.40
2023-02-03T00:54:43.647Z,4.40
2023-02-03T00:57:11.595Z,4.50
2023-02-03T00:59:40.372Z,4.40
2023-02-03T01:02:08.287Z,4.40
2023-02-03T01:04:37.581Z,4.40
2023-02-03T01:07:05.474Z,4.40
2023-02-03T01:09:34.808Z,4.40
2023-02-03T01:12:02.725Z,4.50
2023-02-03T01:14:30.913Z,4.50
2023-02-03T01:16:59.121Z,4.40
2023-02-03T01:19:27.077Z,4.50
2023-02-03T01:21:56.309Z,4.50
2023-02-03T01:24:24.182Z,4.50
2023-02-03T01:26:52.042Z,4.50
2023-02-03T01:29:19.902Z,4.50
2023-02-03T01:31:50.353Z,4.50
2023-02-03T01:34:18.516Z,4.60
2023-02-03T01:36:47.049Z,4.50
2023-02-03T01:39:16.296Z,4.50
2023-02-03T01:41:44.524Z,4.50
2023-02-03T01:44:36.455Z,4.50
2023-02-03T01:47:06.872Z,4.60
2023-02-03T01:49:37.650Z,4.50
2023-02-03T01:52:06.835Z,4.50
2023-02-03T01:54:41.883Z,4.50
2023-02-03T01:57:19.406Z,4.50
2023-02-03T01:59:48.271Z,4.60
2023-02-03T02:02:16.439Z,4.60
2023-02-03T02:04:54.781Z,4.50
2023-02-03T02:07:22.821Z,4.60
2023-02-03T02:09:52.056Z,4.60
2023-02-03T02:12:20.010Z,4.60
2023-02-03T02:14:49.008Z,4.60
2023-02-03T02:17:34.726Z,4.60
2023-02-03T02:20:55.687Z,4.60
2023-02-03T02:23:55.743Z,4.60
2023-02-03T02:26:55.140Z,4.60
2023-02-03T02:30:01.223Z,4.60
2023-02-03T02:32:51.566Z,4.60
2023-02-03T02:35:30.990Z,4.60
2023-02-03T02:38:05.166Z,4.60
2023-02-03T02:40:38.655Z,4.60
2023-02-03T02:43:14.224Z,4.60
2023-02-03T02:45:47.044Z,4.70
2023-02-03T02:48:23.635Z,4.60
2023-02-03T02:50:54.756Z,4.70
2023-02-03T02:53:26.970Z,4.70
2023-02-03T02:55:58.229Z,4.70
2023-02-03T02:58:29.097Z,4.70
2023-02-03T03:00:57.223Z,4.70
2023-02-03T03:03:26.441Z,4.70
2023-02-03T03:05:57.887Z,4.70
2023-02-03T03:08:34.877Z,4.70
2023-02-03T03:11:03.748Z,4.60
2023-02-03T03:13:35.059Z,4.70
2023-02-03T03:16:07.530Z,4.70
2023-02-03T03:18:43.746Z,4.60
2023-02-03T03:21:14.941Z,4.60
2023-02-03T03:23:48.725Z,4.60
2023-02-03T03:26:22.994Z,4.60
2023-02-03T03:28:53.511Z,4.70
2023-02-03T03:31:21.820Z,4.70
2023-02-03T03:33:51.207Z,4.70
2023-02-03T03:36:26.101Z,4.80
2023-02-03T03:38:59.472Z,4.80
2023-02-03T03:41:35.328Z,4.80
2023-02-03T03:44:06.815Z,4.80
2023-02-03T03:46:41.126Z,4.70
2023-02-03T03:49:12.636Z,4.70
2023-02-03T03:51:45.328Z,4.80
2023-02-03T03:54:16.982Z,4.70
2023-02-03T03:56:49.402Z,4.70
2023-02-03T03:59:19.852Z,4.70
2023-02-03T04:01:49.235Z,4.70
2023-02-03T04:04:19.694Z,4.70
2023-02-03T04:06:47.581Z,4.70
2023-02-03T04:09:15.463Z,4.70
2023-02-03T04:12:00.787Z,4.70
2023-02-03T04:14:29.968Z,4.70
2023-02-03T04:16:58.035Z,4.70
2023-02-03T04:19:27.553Z,4.70
2023-02-03T04:21:55.451Z,4.70
2023-02-03T04:24:23.460Z,4.70
2023-02-03T04:26:51.334Z,4.70
2023-02-03T04:29:19.201Z,4.70
2023-02-03T04:31:47.350Z,4.80
2023-02-03T04:34:15.224Z,4.70
2023-02-03T04:36:44.436Z,4.70
2023-02-03T04:39:12.515Z,4.70
2023-02-03T04:41:40.394Z,4.70
2023-02-03T04:44:08.289Z,4.70
2023-02-03T04:46:36.448Z,4.70
2023-02-03T04:49:04.518Z,4.70
2023-02-03T04:51:32.389Z,4.70
2023-02-03T04:54:01.597Z,4.70
2023-02-03T04:56:29.458Z,4.70
2023-02-03T04:58:57.306Z,4.70
2023-02-03T05:01:25.328Z,4.70
2023-02-03T05:03:53.234Z,4.70
2023-02-03T05:06:24.450Z,4.70
2023-02-03T05:08:52.520Z,4.70
2023-02-03T05:11:21.879Z,4.70
2023-02-03T05:13:49.776Z,4.80
2023-02-03T05:16:17.859Z,4.70
2023-02-03T05:18:45.933Z,4.70
2023-02-03T05:21:13.832Z,4.70
2023-02-03T05:23:41.677Z,4.70
2023-02-03T05:26:09.686Z,4.70
2023-02-03T05:28:39.087Z,4.70
2023-02-03T05:31:07.040Z,4.70
2023-02-03T05:33:34.979Z,4.70
2023-02-03T05:36:03.135Z,4.70
2023-02-03T05:38:31.004Z,4.70
2023-02-03T05:41:16.474Z,4.60
2023-02-03T05:43:45.660Z,4.60
2023-02-03T05:46:13.657Z,4.70
2023-02-03T05:48:41.555Z,4.60
2023-02-03T05:51:09.415Z,4.70
2023-02-03T05:53:37.261Z,4.60
2023-02-03T05:56:05.471Z,4.60
2023-02-03T05:58:33.341Z,4.50
2023-02-03T06:01:02.565Z,4.60
2023-02-03T06:03:30.558Z,4.50
2023-02-03T06:05:58.945Z,4.50
2023-02-03T06:08:28.653Z,4.50
2023-02-03T06:10:59.915Z,4.50
2023-02-03T06:13:28.352Z,4.60
2023-02-03T06:15:56.431Z,4.60
2023-02-03T06:18:25.775Z,4.60
2023-02-03T06:20:53.738Z,4.60
2023-02-03T06:23:21.624Z,4.60
2023-02-03T06:25:50.533Z,4.60
2023-02-03T06:28:18.765Z,4.60
2023-02-03T06:30:46.806Z,4.60
2023-02-03T06:33:14.766Z,4.60
2023-02-03T06:35:43.967Z,4.60
2023-02-03T06:38:11.978Z,4.70
2023-02-03T06:40:39.873Z,4.70
2023-02-03T06:43:07.738Z,4.70
2023-02-03T06:45:36.141Z,4.70
2023-02-03T06:48:04.141Z,4.70
2023-02-03T06:50:32.300Z,4.60
2023-02-03T06:53:01.558Z,4.70
2023-02-03T06:55:29.918Z,4.60
2023-02-03T06:57:57.838Z,4.70
2023-02-03T07:00:26.060Z,4.70
2023-02-03T07:02:57.899Z,4.70
2023-02-03T07:05:27.877Z,4.70
2023-02-03T07:07:55.903Z,4.70
2023-02-03T07:10:25.286Z,4.80
2023-02-03T07:12:53.201Z,4.80
2023-02-03T07:15:21.089Z,4.80
2023-02-03T07:17:54.271Z,4.80
2023-02-03T07:20:23.557Z,4.80
2023-02-03T07:22:55.659Z,4.90
2023-02-03T07:25:25.817Z,4.90
2023-02-03T07:27:54.288Z,5.00
2023-02-03T07:30:22.420Z,5.00
2023-02-03T07:32:50.947Z,5.10
2023-02-03T07:35:19.599Z,5.10
2023-02-03T07:37:47.477Z,5.10
2023-02-03T07:40:16.126Z,5.10
2023-02-03T07:42:46.492Z,5.10
2023-02-03T07:45:16.571Z,5.10
2023-02-03T07:47:45.381Z,5.20
2023-02-03T07:50:14.033Z,5.20
2023-02-03T07:52:42.028Z,5.30
2023-02-03T07:55:10.652Z,5.30
2023-02-03T07:57:43.315Z,5.30
2023-02-03T08:00:14.590Z,5.40
2023-02-03T08:02:42.609Z,5.50
2023-02-03T08:05:10.648Z,5.60
2023-02-03T08:07:38.662Z,5.50
2023-02-03T08:10:07.329Z,5.60
2023-02-03T08:12:35.431Z,5.80
2023-02-03T08:15:03.337Z,5.80
2023-02-03T08:17:33.665Z,5.70
2023-02-03T08:20:01.744Z,5.80
2023-02-03T08:22:29.610Z,5.90
2023-02-03T08:24:57.501Z,6.10
2023-02-03T08:27:25.780Z,6.00
2023-02-03T08:29:53.693Z,6.00
2023-02-03T08:32:23.422Z,6.00
2023-02-03T08:34:53.615Z,6.10
2023-02-03T08:37:24.629Z,6.20
2023-02-03T08:39:52.958Z,6.20
2023-02-03T08:42:21.354Z,6.10
2023-02-03T08:44:49.259Z,6.10
2023-02-03T08:47:17.638Z,6.20
2023-02-03T08:49:45.885Z,6.30
2023-02-03T08:52:18.058Z,6.20
2023-02-03T08:54:47.486Z,6.30
2023-02-03T08:57:15.484Z,6.30
2023-02-03T08:59:44.917Z,6.50
2023-02-03T09:02:17.426Z,6.60
2023-02-03T09:04:45.724Z,6.70
2023-02-03T09:07:15.502Z,6.50
2023-02-03T09:09:43.797Z,6.60
2023-02-03T09:12:13.103Z,6.60
2023-02-03T09:14:41.317Z,6.50
2023-02-03T09:17:10.792Z,6.50
2023-02-03T09:19:39.160Z,6.60
2023-02-03T09:22:07.302Z,6.70
2023-02-03T09:24:37.027Z,6.50
2023-02-03T09:27:05.003Z,6.40
2023-02-03T09:29:33.002Z,6.40
2023-02-03T09:32:06.789Z,6.60
2023-02-03T09:34:34.747Z,6.70
2023-02-03T09:37:04.170Z,6.70
2023-02-03T09:39:32.108Z,6.70
2023-02-03T09:42:40.368Z,6.80
2023-02-03T09:45:15.929Z,6.90
2023-02-03T09:47:45.331Z,7.00
2023-02-03T09:50:16.204Z,7.10
2023-02-03T09:52:45.192Z,7.20
2023-02-03T09:55:27.883Z,7.10
2023-02-03T09:58:04.397Z,7.10
2023-02-03T10:00:36.263Z,7.30
2023-02-03T10:03:09.646Z,7.30
2023-02-03T10:05:50.620Z,7.30
2023-02-03T10:08:31.381Z,7.40
2023-02-03T10:11:11.438Z,7.40
2023-02-03T10:13:50.212Z,7.50
2023-02-03T10:16:36.798Z,7.60
2023-02-03T10:19:12.267Z,7.80
2023-02-03T10:21:44.859Z,7.60
2023-02-03T10:24:17.158Z,7.60
2023-02-03T10:26:45.075Z,7.50
2023-02-03T10:29:21.272Z,7.50
2023-02-03T10:31:49.941Z,7.50
2023-02-03T10:34:19.718Z,7.40
2023-02-03T10:36:56.168Z,7.40
2023-02-03T10:39:32.981Z,7.60
2023-02-03T10:42:02.133Z,7.90
2023-02-03T10:44:38.674Z,7.90
2023-02-03T10:47:22.640Z,7.70
2023-02-03T10:49:52.159Z,7.60
2023-02-03T10:52:32.026Z,7.50
2023-02-03T10:55:00.365Z,7.80
2023-02-03T10:57:30.649Z,7.90
2023-02-03T11:00:22.669Z,7.60
2023-02-03T11:02:57.553Z,7.60
2023-02-03T11:05:26.355Z,7.80
2023-02-03T11:07:54.737Z,7.80
2023-02-03T11:10:35.794Z,7.80
2023-02-03T11:13:18.175Z,7.80
2023-02-03T11:16:12.297Z,7.70
2023-02-03T11:18:48.436Z,7.70
2023-02-03T11:21:19.278Z,7.80
2023-02-03T11:23:51.421Z,7.80
2023-02-03T11:26:21.924Z,8.00
2023-02-03T11:28:53.748Z,7.80
2023-02-03T11:31:28.001Z,7.70
2023-02-03T11:33:59.508Z,7.80
2023-02-03T11:36:32.035Z,7.90
2023-02-03T11:39:21.590Z,8.10
2023-02-03T11:41:50.400Z,8.30
2023-02-03T11:44:21.665Z,8.00
2023-02-03T11:46:54.627Z,8.00
2023-02-03T11:49:54.619Z,8.10
2023-02-03T11:52:45.862Z,8.10
2023-02-03T11:55:32.590Z,8.50
2023-02-03T11:58:14.887Z,8.80
2023-02-03T12:00:51.682Z,8.40
2023-02-03T12:03:54.702Z,8.30
2023-02-03T12:06:47.988Z,8.40
2023-02-03T12:09:26.680Z,8.30
2023-02-03T12:12:11.925Z,8.10
2023-02-03T12:14:51.522Z,8.20
2023-02-03T12:17:46.601Z,8.10
2023-02-03T12:20:26.984Z,7.90
2023-02-03T12:23:02.367Z,7.80
2023-02-03T12:25:41.829Z,7.80
2023-02-03T12:28:32.911Z,7.90
2023-02-03T12:31:06.895Z,7.90
2023-02-03T12:33:43.382Z,8.00
2023-02-03T12:36:16.955Z,8.00
2023-02-03T12:38:52.085Z,7.90
2023-02-03T12:41:25.514Z,7.70
2023-02-03T12:43:54.270Z,7.70
2023-02-03T12:46:27.120Z,7.70
2023-02-03T12:49:01.569Z,7.80
2023-02-03T12:51:37.272Z,7.70
2023-02-03T12:54:26.268Z,7.80
2023-02-03T12:56:56.960Z,7.60
2023-02-03T12:59:26.819Z,7.60
2023-02-03T13:02:00.327Z,7.60
2023-02-03T13:04:35.903Z,7.50
2023-02-03T13:07:11.890Z,7.50
2023-02-03T13:09:42.535Z,7.50
2023-02-03T13:12:14.609Z,7.70
2023-02-03T13:14:45.951Z,7.80
2023-02-03T13:17:19.207Z,7.80
2023-02-03T13:19:49.067Z,7.80
2023-02-03T13:22:19.516Z,7.70
2023-02-03T13:24:52.325Z,7.60
2023-02-03T13:27:37.751Z,7.60
2023-02-03T13:30:24.470Z,7.50
2023-02-03T13:33:33.585Z,7.50
2023-02-03T13:36:15.805Z,7.40
2023-02-03T13:39:09.541Z,7.40
2023-02-03T13:41:43.900Z,7.40
2023-02-03T13:44:15.334Z,7.30
2023-02-03T13:46:43.685Z,7.30
2023-02-03T13:49:19.744Z,7.50
2023-02-03T13:51:47.893Z,7.40
2023-02-03T13:54:22.512Z,7.40
2023-02-03T13:56:56.492Z,7.30
2023-02-03T13:59:43.499Z,7.30
2023-02-03T14:02:50.535Z,7.30
2023-02-03T14:05:41.116Z,7.20
2023-02-03T14:08:53.538Z,7.20
2023-02-03T14:11:45.745Z,7.10
2023-02-03T14:14:46.164Z,7.00
2023-02-03T14:18:02.837Z,6.90
2023-02-03T14:20:58.993Z,6.90
2023-02-03T14:23:34.939Z,6.90
2023-02-03T14:26:03.504Z,6.80
2023-02-03T14:28:41.026Z,6.90
2023-02-03T14:31:16.838Z,7.00
2023-02-03T14:34:06.139Z,6.90
2023-02-03T14:36:39.727Z,6.80
2023-02-03T14:39:41.047Z,6.80
2023-02-03T14:42:19.226Z,6.90
2023-02-03T14:45:01.305Z,6.80
2023-02-03T14:47:45.786Z,6.80
2023-02-03T14:50:34.384Z,6.80
2023-02-03T14:53:25.655Z,6.80
2023-02-03T14:56:05.084Z,6.80
2023-02-03T14:58:38.159Z,6.70
2023-02-03T15:01:08.252Z,6.70
2023-02-03T15:03:37.876Z,6.70
2023-02-03T15:06:06.769Z,6.60
2023-02-03T15:08:44.264Z,6.60
2023-02-03T15:11:31.424Z,6.60
2023-02-03T15:14:26.082Z,6.60
2023-02-03T15:16:58.703Z,6.60
2023-02-03T15:19:29.253Z,6.60
2023-02-03T15:21:57.430Z,6.60
2023-02-03T15:24:25.888Z,6.60
2023-02-03T15:26:55.412Z,6.60
2023-02-03T15:29:30.390Z,6.50
2023-02-03T15:32:06.481Z,6.60
2023-02-03T15:34:39.328Z,6.60
2023-02-03T15:37:10.442Z,6.60
2023-02-03T15:39:53.345Z,6.60
2023-02-03T15:42:25.681Z,6.50
2023-02-03T15:44:58.371Z,6.50
2023-02-03T15:47:32.529Z,6.50
2023-02-03T15:50:06.963Z,6.50
2023-02-03T15:52:38.757Z,6.50
2023-02-03T15:55:19.502Z,6.50
2023-02-03T15:57:50.377Z,6.50
2023-02-03T16:00:39.594Z,6.50
2023-02-03T16:03:19.968Z,6.50
2023-02-03T16:05:50.265Z,6.50
2023-02-03T16:08:37.104Z,6.40
2023-02-03T16:11:24.151Z,6.40
2023-02-03T16:13:52.485Z,6.40
2023-02-03T16:16:23.558Z,6.40
2023-02-03T16:18:55.151Z,6.40
2023-02-03T16:21:32.181Z,6.40
2023-02-03T16:24:01.533Z,6.40
2023-02-03T16:26:30.508Z,6.40
2023-02-03T16:29:29.808Z,6.30
2023-02-03T16:32:15.537Z,6.40
2023-02-03T16:35:02.886Z,6.40
2023-02-03T16:37:50.418Z,6.30
2023-02-03T16:40:38.787Z,6.30
2023-02-03T16:43:30.267Z,6.30
2023-02-03T16:46:17.286Z,6.30
2023-02-03T16:49:03.325Z,6.20
2023-02-03T16:51:39.342Z,6.20
2023-02-03T16:54:07.880Z,6.20
2023-02-03T16:57:00.967Z,6.20
2023-02-03T16:59:28.844Z,6.20
2023-02-03T17:01:56.693Z,6.10
2023-02-03T17:04:25.156Z,6.10
2023-02-03T17:06:54.408Z,6.10
2023-02-03T17:09:24.922Z,6.10
2023-02-03T17:11:52.845Z,6.20
2023-02-03T17:14:21.411Z,6.20
2023-02-03T17:16:49.336Z,6.20
2023-02-03T17:19:17.256Z,6.10
2023-02-03T17:21:45.361Z,6.20
2023-02-03T17:24:14.891Z,6.20
2023-02-03T17:26:42.847Z,6.10
2023-02-03T17:29:11.448Z,6.10
2023-02-03T17:31:39.393Z,6.10
2023-02-03T17:34:07.428Z,6.10
2023-02-03T17:36:35.346Z,6.10
2023-02-03T17:55:32.260Z,6.10
2023-02-03T17:58:01.674Z,6.10
2023-02-03T18:00:29.968Z,6.10
2023-02-03T18:02:57.997Z,6.10
2023-02-03T18:05:25.966Z,6.00
2023-02-03T18:07:53.908Z,6.00
2023-02-03T18:10:21.785Z,5.90
2023-02-03T18:12:49.697Z,5.90
2023-02-03T18:15:19.070Z,5.80
2023-02-03T18:17:46.951Z,5.90
2023-02-03T18:20:14.830Z,5.90
2023-02-03T18:22:44.559Z,5.90
2023-02-03T18:25:15.948Z,5.90
2023-02-03T18:27:43.891Z,5.90
2023-02-03T18:30:12.888Z,5.80
2023-02-03T18:32:42.058Z,5.80
2023-02-03T18:35:13.845Z,5.80
2023-02-03T18:37:41.737Z,5.80
2023-02-03T18:40:10.316Z,5.70
2023-02-03T18:42:38.171Z,5.70
2023-02-03T18:45:06.593Z,5.70
2023-02-03T18:47:35.276Z,5.70
2023-02-03T18:50:04.720Z,5.70
2023-02-03T18:52:32.574Z,5.70
2023-02-03T18:55:00.464Z,5.70
2023-02-03T18:57:28.542Z,5.70
2023-02-03T18:59:56.728Z,5.70
2023-02-03T19:02:25.775Z,5.70
2023-02-03T19:04:53.726Z,5.70
2023-02-03T19:07:22.965Z,5.70
2023-02-03T19:09:50.876Z,5.70
2023-02-03T19:12:18.847Z,5.50
2023-02-03T19:14:46.714Z,5.40
2023-02-03T19:17:14.793Z,5.40
2023-02-03T19:19:42.691Z,5.30
2023-02-03T19:22:12.924Z,5.30
2023-02-03T19:24:42.220Z,5.30
2023-02-03T19:27:10.048Z,5.30
2023-02-03T19:29:38.915Z,5.30
2023-02-03T19:32:08.044Z,5.20
2023-02-03T19:34:36.081Z,5.20
2023-02-03T19:37:03.930Z,5.20
2023-02-03T19:39:32.285Z,5.20
2023-02-03T19:42:01.557Z,5.10
2023-02-03T19:44:29.433Z,5.10
2023-02-03T19:46:57.320Z,5.20
2023-02-03T19:49:25.450Z,5.20
2023-02-03T19:51:53.325Z,5.20
2023-02-03T19:54:21.184Z,5.10
2023-02-03T19:56:49.035Z,5.10
2023-02-03T19:59:18.252Z,5.20
2023-02-03T20:01:46.412Z,5.10
2023-02-03T20:04:14.313Z,5.10
2023-02-03T20:06:42.159Z,5.10
2023-02-03T20:09:10.030Z,5.10
2023-02-03T20:11:38.023Z,5.10
2023-02-03T20:14:05.939Z,5.10
2023-02-03T20:16:35.159Z,5.10
2023-02-03T20:19:04.031Z,5.10
2023-02-03T20:21:31.927Z,5.10
2023-02-03T20:23:59.796Z,5.00
2023-02-03T20:26:27.710Z,5.10
2023-02-03T20:28:55.579Z,5.00
2023-02-03T20:31:23.577Z,5.00
2023-02-03T20:33:53.257Z,5.00
2023-02-03T20:36:21.408Z,5.00
2023-02-03T20:38:49.466Z,5.00
2023-02-03T20:41:19.718Z,5.00
2023-02-03T20:43:47.625Z,5.00
2023-02-03T20:46:18.090Z,5.00
2023-02-03T20:48:48.999Z,5.10
2023-02-03T20:51:20.999Z,5.00
2023-02-03T20:53:49.996Z,5.10
2023-02-03T20:56:21.341Z,5.00
2023-02-03T20:58:49.484Z,5.00
2023-02-03T21:01:20.166Z,5.10
2023-02-03T21:04:06.352Z,5.00
2023-02-03T21:06:35.836Z,5.10
2023-02-03T21:09:14.580Z,5.10
2023-02-03T21:11:42.981Z,5.10
2023-02-03T21:14:20.126Z,5.10
2023-02-03T21:16:48.983Z,5.10
2023-02-03T21:19:29.748Z,5.20
2023-02-03T21:21:59.118Z,5.10
2023-02-03T21:24:29.498Z,5.20
2023-02-03T21:26:58.205Z,5.20
2023-02-03T21:29:32.462Z,5.20
2023-02-03T21:32:00.877Z,5.20
2023-02-03T21:34:30.386Z,5.20
2023-02-03T21:37:08.045Z,5.20
2023-02-03T21:39:37.388Z,5.20
2023-02-03T21:42:40.928Z,5.20
2023-02-03T21:45:30.773Z,5.20
2023-02-03T21:47:59.948Z,5.30
2023-02-03T21:50:31.175Z,5.20
2023-02-03T21:53:18.849Z,5.20
2023-02-03T21:55:46.795Z,5.20
2023-02-03T21:58:23.700Z,5.20
2023-02-03T22:00:53.025Z,5.20
2023-02-03T22:03:26.692Z,5.30
2023-02-03T22:06:05.490Z,5.30
2023-02-03T22:08:38.716Z,5.20
2023-02-03T22:11:06.905Z,5.20
2023-02-03T22:13:35.304Z,5.10
2023-02-03T22:16:03.849Z,5.10
2023-02-03T22:18:31.735Z,5.10
2023-02-03T22:20:59.614Z,5.10
2023-02-03T22:23:27.483Z,5.10
2023-02-03T22:25:56.675Z,5.10
2023-02-03T22:28:24.549Z,5.10
2023-02-03T22:30:52.569Z,5.00
2023-02-03T22:33:20.520Z,5.00
2023-02-03T22:35:48.420Z,5.00
2023-02-03T22:38:16.268Z,5.00
2023-02-03T22:40:44.500Z,5.00
2023-02-03T22:43:13.765Z,5.00
2023-02-03T22:45:42.039Z,5.00
2023-02-03T22:48:10.093Z,5.00
2023-02-03T22:50:38.366Z,5.00
2023-02-03T22:53:07.077Z,5.00
2023-02-03T22:55:37.790Z,5.00
2023-02-03T22:58:05.939Z,5.00
2023-02-03T23:00:35.737Z,4.90
2023-02-03T23:03:04.112Z,4.90
2023-02-03T23:05:32.407Z,4.90
2023-02-03T23:08:00.384Z,4.90
2023-02-03T23:10:31.831Z,4.90
2023-02-03T23:13:01.549Z,4.90
2023-02-03T23:15:29.799Z,4.90
2023-02-03T23:17:59.360Z,4.90
2023-02-03T23:20:27.376Z,4.80
2023-02-03T23:22:55.273Z,4.80
2023-02-03T23:25:23.175Z,4.80
2023-02-03T23:27:51.143Z,4.80
2023-02-03T23:30:19.207Z,4.80
2023-02-03T23:32:47.126Z,4.80
2023-02-03T23:35:34.331Z,4.70
2023-02-03T23:38:02.238Z,4.70
2023-02-03T23:40:30.417Z,4.70
2023-02-03T23:42:58.525Z,4.70
2023-02-03T23:45:26.533Z,4.60
2023-02-03T23:47:54.586Z,4.60
2023-02-03T23:50:24.909Z,4.60
2023-02-03T23:52:52.769Z,4.60
2023-02-03T23:55:21.889Z,4.60
2023-02-03T23:57:49.821Z,4.60
